Time;durP1;ratioP1;P1;durP2;ratioP2;P2;SDS_P1;SDS_P2;PMS_P1;PMS_P2;Temp;Humidity;BMP_temperature;BMP_pressure;BME280_temperature;BME280_humidity;BME280_pressure;Samples;Min_cycle;Max_cycle;Signal;HPM_P1;HPM_P2
2023/11/12 00:00:16;;;;;;;2.60;2.30;;;6.30;99.90;;;;;;5042133;28;20192;-83
2023/11/12 00:02:42;;;;;;;2.72;2.40;;;6.40;99.90;;;;;;5043220;28;20178;-83
2023/11/12 00:05:09;;;;;;;3.40;2.40;;;6.70;99.90;;;;;;5057763;28;20191;-83
2023/11/12 00:07:35;;;;;;;5.10;2.80;;;6.50;99.90;;;;;;5040442;28;20512;-83
2023/11/12 00:10:01;;;;;;;2.70;2.47;;;6.60;99.90;;;;;;5041679;28;20674;-83
2023/11/12 00:12:28;;;;;;;2.87;2.40;;;;;;;;;;5042370;28;20186;-83
2023/11/12 00:14:54;;;;;;;3.10;2.20;;;6.60;99.90;;;;;;5042845;28;20531;-83
2023/11/12 00:17:19;;;;;;;3.33;2.60;;;7.50;99.90;;;;;;5038741;28;20209;-83
2023/11/12 00:19:45;;;;;;;4.93;4.10;;;6.80;99.90;;;;;;5063512;28;20467;-83
2023/11/12 00:22:12;;;;;;;2.60;2.40;;;6.70;99.90;;;;;;5040702;28;20915;-83
2023/11/12 00:24:38;;;;;;;2.65;2.45;;;6.70;99.90;;;;;;5056666;28;20205;-82
2023/11/12 00:27:04;;;;;;;2.90;2.30;;;6.70;99.90;;;;;;5044569;28;20212;-83
2023/11/12 00:29:31;;;;;;;2.72;2.50;;;6.70;99.90;;;;;;5040684;28;20468;-83
2023/11/12 00:31:57;;;;;;;3.13;2.58;;;6.90;99.90;;;;;;5063074;28;20193;-83
2023/11/12 00:34:23;;;;;;;2.75;2.15;;;7.20;99.90;;;;;;5030070;28;20209;-81
2023/11/12 00:36:49;;;;;;;6.30;2.33;;;6.70;99.90;;;;;;5060904;28;20264;-81
2023/11/12 00:39:15;;;;;;;2.25;2.05;;;6.90;99.90;;;;;;5042272;28;20544;-81
2023/11/12 00:41:41;;;;;;;3.40;2.30;;;7.20;99.90;;;;;;5061076;28;20585;-81
2023/11/12 00:44:10;;;;;;;2.28;2.08;;;7.00;99.90;;;;;;5041431;28;20217;-81
2023/11/12 00:46:38;;;;;;;1.73;1.63;;;7.10;99.90;;;;;;5049302;28;20200;-82
2023/11/12 00:49:05;;;;;;;2.65;2.45;;;6.60;99.90;;;;;;5063627;28;20189;-81
2023/11/12 00:51:31;;;;;;;2.55;2.00;;;7.10;99.90;;;;;;5042560;28;20192;-81
2023/11/12 00:53:57;;;;;;;2.05;1.85;;;7.60;99.90;;;;;;5063493;28;20194;-82
2023/11/12 00:56:22;;;;;;;2.57;2.20;;;7.30;99.90;;;;;;5053484;28;20217;-84
2023/11/12 00:58:48;;;;;;;2.37;2.17;;;7.30;99.90;;;;;;5053656;28;20216;-82
2023/11/12 01:01:15;;;;;;;2.10;1.90;;;7.80;99.90;;;;;;5045798;28;20220;-82
2023/11/12 01:03:40;;;;;;;3.10;2.30;;;7.10;99.90;;;;;;5035730;28;20198;-82
2023/11/12 01:06:06;;;;;;;1.70;1.60;;;7.40;99.90;;;;;;5039304;28;20280;-82
2023/11/12 01:08:32;;;;;;;1.80;1.70;;;7.80;99.90;;;;;;5058936;28;20182;-82
2023/11/12 01:10:58;;;;;;;2.37;1.53;;;7.30;99.90;;;;;;5042490;28;20188;-82
2023/11/12 01:13:24;;;;;;;2.00;1.80;;;7.90;99.90;;;;;;5040041;28;20299;-82
2023/11/12 01:15:50;;;;;;;1.90;1.70;;;8.60;99.90;;;;;;5039898;28;20432;-82
2023/11/12 01:18:16;;;;;;;1.70;1.60;;;7.90;99.90;;;;;;5056405;28;20181;-82
2023/11/12 01:20:43;;;;;;;2.20;1.80;;;7.40;99.90;;;;;;5055720;28;20262;-82
2023/11/12 01:23:09;;;;;;;1.83;1.73;;;8.10;99.90;;;;;;5040036;28;20224;-82
2023/11/12 01:25:35;;;;;;;2.22;1.92;;;7.60;99.90;;;;;;5039044;28;20218;-82
2023/11/12 01:28:02;;;;;;;2.10;2.00;;;7.70;99.90;;;;;;5042410;28;20200;-82
2023/11/12 01:30:28;;;;;;;2.08;1.70;;;7.50;99.90;;;;;;5043469;28;20186;-82
2023/11/12 01:32:53;;;;;;;1.77;1.67;;;7.90;99.90;;;;;;5063046;28;20217;-82
2023/11/12 01:35:19;;;;;;;1.50;1.37;;;7.30;99.90;;;;;;5046446;28;20289;-82
2023/11/12 01:37:47;;;;;;;1.70;1.60;;;7.60;99.90;;;;;;5046602;28;20182;-81
2023/11/12 01:40:15;;;;;;;1.63;1.20;;;7.50;99.90;;;;;;5042319;28;20523;-81
2023/11/12 01:42:44;;;;;;;2.00;1.80;;;7.60;99.90;;;;;;5050399;28;20180;-83
2023/11/12 01:45:09;;;;;;;1.60;1.50;;;7.70;99.90;;;;;;5042226;28;20186;-83
2023/11/12 01:47:36;;;;;;;1.70;1.60;;;8.00;99.90;;;;;;5043022;28;20182;-83
2023/11/12 01:50:04;;;;;;;1.92;1.80;;;8.00;99.90;;;;;;5042894;28;20299;-83
2023/11/12 01:52:30;;;;;;;1.52;1.42;;;8.00;99.90;;;;;;5036508;28;20178;-82
2023/11/12 01:54:56;;;;;;;1.60;1.50;;;;;;;;;;5025637;28;20651;-83
2023/11/12 01:57:24;;;;;;;1.80;1.67;;;7.80;99.90;;;;;;5063783;28;20220;-82
2023/11/12 01:59:49;;;;;;;2.10;1.48;;;9.50;99.90;;;;;;5043633;28;20196;-82
2023/11/12 02:02:15;;;;;;;1.50;1.40;;;7.80;99.90;;;;;;5047755;28;20170;-83
2023/11/12 02:04:42;;;;;;;2.10;1.27;;;7.90;99.90;;;;;;5053791;28;20220;-81
2023/11/12 02:07:07;;;;;;;1.55;1.30;;;8.60;99.90;;;;;;5058925;28;20243;-81
2023/11/12 02:09:33;;;;;;;1.40;1.30;;;7.80;99.90;;;;;;5038718;28;20178;-81
2023/11/12 02:11:58;;;;;;;3.73;1.40;;;7.60;99.90;;;;;;5058217;28;20260;-80
2023/11/12 02:14:25;;;;;;;1.33;1.23;;;7.90;99.90;;;;;;5034954;28;20218;-81
2023/11/12 02:16:51;;;;;;;1.48;1.38;;;7.90;99.90;;;;;;5037466;28;20634;-81
2023/11/12 02:19:27;;;;;;;1.30;1.20;;;8.10;99.90;;;;;;5033689;28;20198;-80
2023/11/12 02:21:53;;;;;;;2.08;1.50;;;8.20;99.90;;;;;;5029474;28;20453;-80
2023/11/12 02:24:20;;;;;;;2.90;1.80;;;7.80;99.90;;;;;;5045671;28;20194;-80
2023/11/12 02:26:47;;;;;;;1.30;1.10;;;7.90;99.90;;;;;;5051186;28;20434;-81
2023/11/12 02:29:13;;;;;;;1.77;1.30;;;8.20;99.90;;;;;;5036613;28;20221;-80
2023/11/12 02:31:39;;;;;;;1.77;1.33;;;7.90;99.90;;;;;;5052805;28;21252;-80
2023/11/12 02:34:06;;;;;;;1.67;1.20;;;7.70;99.90;;;;;;5033635;28;20213;-80
2023/11/12 02:36:35;;;;;;;1.92;1.23;;;7.90;99.90;;;;;;5033391;28;20201;-80
2023/11/12 02:39:01;;;;;;;1.85;1.70;;;8.10;99.90;;;;;;5039149;28;20190;-81
2023/11/12 02:41:27;;;;;;;1.27;1.10;;;8.20;99.90;;;;;;5058806;28;20220;-80
2023/11/12 02:43:55;;;;;;;1.50;1.40;;;8.00;99.90;;;;;;5050004;28;20216;-81
2023/11/12 02:46:21;;;;;;;1.55;1.45;;;8.10;99.90;;;;;;5044013;28;20210;-81
2023/11/12 02:49:05;;;;;;;1.95;1.48;;;7.70;99.90;;;;;;5048119;28;20259;-81
2023/11/12 02:51:31;;;;;;;1.60;1.50;;;7.90;99.90;;;;;;5044343;28;20182;-80
2023/11/12 02:53:57;;;;;;;1.87;1.50;;;8.40;99.90;;;;;;5045307;28;20264;-80
2023/11/12 02:56:22;;;;;;;1.40;1.30;;;7.20;99.90;;;;;;5046054;28;20504;-80
2023/11/12 02:58:48;;;;;;;1.70;1.40;;;7.50;99.90;;;;;;5046489;28;20635;-81
2023/11/12 03:01:14;;;;;;;1.50;1.40;;;7.20;99.90;;;;;;5052086;28;20429;-80
2023/11/12 03:03:41;;;;;;;2.53;1.83;;;7.10;99.90;;;;;;5048192;28;20460;-81
2023/11/12 03:06:07;;;;;;;1.60;1.50;;;7.00;99.90;;;;;;5046992;28;20260;-80
2023/11/12 03:08:32;;;;;;;1.50;1.30;;;7.50;99.90;;;;;;5049731;28;20709;-81
2023/11/12 03:10:58;;;;;;;2.13;1.33;;;7.00;99.90;;;;;;5046715;28;20246;-81
2023/11/12 03:13:25;;;;;;;1.83;1.67;;;7.20;99.90;;;;;;5041939;28;20194;-81
2023/11/12 03:15:51;;;;;;;2.10;1.92;;;7.10;99.90;;;;;;5047254;28;20440;-81
2023/11/12 03:18:17;;;;;;;2.00;1.67;;;7.20;99.90;;;;;;5048374;28;20184;-81
2023/11/12 03:20:43;;;;;;;1.73;1.60;;;7.20;99.90;;;;;;5022848;28;20198;-81
2023/11/12 03:23:08;;;;;;;2.50;1.60;;;6.70;99.90;;;;;;5038103;28;21053;-81
2023/11/12 03:25:34;;;;;;;4.90;1.40;;;6.90;99.90;;;;;;5059657;28;20209;-81
2023/11/12 03:28:00;;;;;;;4.53;2.97;;;6.80;99.90;;;;;;5055294;28;20471;-81
2023/11/12 03:30:26;;;;;;;3.63;1.70;;;6.60;99.90;;;;;;5055715;28;20252;-81
2023/11/12 03:32:51;;;;;;;1.42;1.30;;;6.50;99.90;;;;;;5044765;28;20198;-80
2023/11/12 03:35:17;;;;;;;1.30;1.20;;;6.50;99.90;;;;;;5056109;22;20220;-89
2023/11/12 03:37:42;;;;;;;2.43;1.30;;;6.30;99.90;;;;;;5014529;28;20194;-88
2023/11/12 03:40:09;;;;;;;1.33;1.10;;;6.00;99.90;;;;;;5014446;28;20193;-88
2023/11/12 03:42:34;;;;;;;2.95;2.40;;;6.20;99.90;;;;;;5012901;28;20257;-89
2023/11/12 03:45:00;;;;;;;1.47;1.37;;;6.10;99.90;;;;;;5013648;28;20667;-89
2023/11/12 03:47:26;;;;;;;2.30;1.40;;;6.00;99.90;;;;;;5012790;28;20758;-89
2023/11/12 03:49:51;;;;;;;2.50;1.30;;;6.00;99.90;;;;;;5013266;28;20185;-89
2023/11/12 03:52:17;;;;;;;1.40;1.30;;;6.40;99.90;;;;;;5011587;28;20193;-90
2023/11/12 03:54:44;;;;;;;1.88;1.52;;;5.90;99.90;;;;;;5011921;28;20201;-89
2023/11/12 03:57:10;;;;;;;1.95;1.63;;;6.20;99.90;;;;;;5011759;28;20201;-89
2023/11/12 03:59:36;;;;;;;3.67;1.70;;;6.00;99.90;;;;;;5008843;28;20288;-89
2023/11/12 04:02:05;;;;;;;2.30;1.67;;;6.20;99.90;;;;;;5012316;28;20212;-89
2023/11/12 04:04:30;;;;;;;1.40;1.30;;;5.80;99.90;;;;;;5012619;28;20217;-89
2023/11/12 04:06:56;;;;;;;1.90;1.80;;;5.70;99.90;;;;;;5009276;28;20257;-89
2023/11/12 04:09:22;;;;;;;1.97;1.80;;;5.70;99.90;;;;;;5011438;28;20192;-89
2023/11/12 04:11:48;;;;;;;2.00;1.80;;;5.90;99.90;;;;;;5033512;28;20195;-88
2023/11/12 04:14:14;;;;;;;2.65;1.50;;;5.90;99.90;;;;;;5015889;28;20205;-89
2023/11/12 04:16:40;;;;;;;2.43;1.97;;;5.90;99.90;;;;;;5012050;28;20193;-89
2023/11/12 04:19:07;;;;;;;1.77;1.63;;;6.10;99.90;;;;;;5012454;28;20475;-89
2023/11/12 04:21:34;;;;;;;2.35;2.15;;;5.90;99.90;;;;;;5011437;28;20190;-88
2023/11/12 04:23:59;;;;;;;1.77;1.40;;;6.30;99.90;;;;;;5011294;28;20214;-88
2023/11/12 04:26:25;;;;;;;2.20;1.70;;;5.50;99.90;;;;;;5010576;28;20258;-88
2023/11/12 04:28:51;;;;;;;2.07;1.50;;;6.20;99.90;;;;;;5009824;28;20459;-89
2023/11/12 04:31:17;;;;;;;2.17;1.80;;;6.00;99.90;;;;;;5012522;28;20483;-88
2023/11/12 04:33:43;;;;;;;1.75;1.65;;;5.70;99.90;;;;;;5028884;28;20209;-87
2023/11/12 04:36:08;;;;;;;1.77;1.47;;;5.70;99.90;;;;;;5012017;28;20212;-88
2023/11/12 04:38:34;;;;;;;2.20;1.67;;;5.90;99.90;;;;;;5011781;28;20243;-88
2023/11/12 04:40:59;;;;;;;3.93;1.47;;;6.00;99.90;;;;;;5010399;28;20535;-88
2023/11/12 04:43:25;;;;;;;2.20;1.50;;;6.20;99.90;;;;;;5009417;28;20216;-88
2023/11/12 04:45:50;;;;;;;1.93;1.60;;;5.70;99.90;;;;;;5011418;28;20216;-88
2023/11/12 04:48:16;;;;;;;2.00;1.80;;;5.80;99.90;;;;;;5009991;28;20233;-88
2023/11/12 04:50:42;;;;;;;6.20;2.37;;;6.10;99.90;;;;;;5012527;28;20182;-88
2023/11/12 04:53:08;;;;;;;2.40;1.63;;;5.80;99.90;;;;;;5012339;28;20282;-89
2023/11/12 04:55:34;;;;;;;1.55;1.45;;;5.90;99.90;;;;;;5011770;28;20243;-88
2023/11/12 04:58:04;;;;;;;1.40;1.30;;;5.60;99.90;;;;;;5009797;28;20197;-88
2023/11/12 05:00:30;;;;;;;1.52;1.42;;;5.60;99.90;;;;;;5011754;28;20240;-88
2023/11/12 05:02:56;;;;;;;3.00;1.53;;;5.50;99.90;;;;;;5010933;28;20210;-88
2023/11/12 05:05:21;;;;;;;2.05;1.75;;;5.80;99.90;;;;;;5012346;28;20295;-87
2023/11/12 05:07:48;;;;;;;4.23;2.10;;;5.80;99.90;;;;;;5012588;28;20728;-87
2023/11/12 05:10:14;;;;;;;1.90;1.70;;;6.00;99.90;;;;;;5015038;28;20182;-88
2023/11/12 05:12:40;;;;;;;1.87;1.77;;;5.60;99.90;;;;;;5013769;28;20551;-89
2023/11/12 05:15:07;;;;;;;2.30;1.83;;;5.90;99.90;;;;;;5015478;28;20189;-88
2023/11/12 05:17:33;;;;;;;1.90;1.80;;;;;;;;;;5013411;28;20618;-88
2023/11/12 05:19:58;;;;;;;2.37;1.77;;;5.40;99.90;;;;;;5016439;28;20273;-88
2023/11/12 05:22:24;;;;;;;2.40;2.20;;;5.50;99.90;;;;;;5015121;28;20443;-88
2023/11/12 05:24:52;;;;;;;1.70;1.60;;;5.60;99.90;;;;;;5015512;28;20209;-89
2023/11/12 05:27:19;;;;;;;2.00;1.70;;;5.80;99.90;;;;;;5015015;28;20601;-89
2023/11/12 05:29:45;;;;;;;2.47;2.08;;;;;;;;;;5014558;28;20565;-93
2023/11/12 05:32:11;;;;;;;1.98;1.80;;;;;;;;;;5028240;28;20211;-94
2023/11/12 05:34:37;;;;;;;2.95;2.20;;;;;;;;;;5009460;28;20743;-94
2023/11/12 05:37:03;;;;;;;2.65;1.77;;;5.40;99.90;;;;;;5016567;28;20236;-94
2023/11/12 05:39:29;;;;;;;2.77;2.23;;;;;;;;;;5019066;28;20213;-94
2023/11/12 05:41:55;;;;;;;2.70;2.50;;;5.40;99.90;;;;;;5040246;28;20495;-94
2023/11/12 05:44:20;;;;;;;3.73;2.70;;;5.10;99.90;;;;;;5035528;28;20216;-93
2023/11/12 05:46:46;;;;;;;3.43;2.37;;;5.40;99.90;;;;;;5038952;28;20247;-93
2023/11/12 05:49:13;;;;;;;2.10;2.00;;;;;;;;;;5057187;28;20174;-94
2023/11/12 05:51:39;;;;;;;2.88;2.47;;;;;;;;;;5036011;28;20194;-95
2023/11/12 05:54:06;;;;;;;3.13;2.65;;;5.40;99.90;;;;;;5017068;28;20201;-94
2023/11/12 05:56:32;;;;;;;2.97;2.67;;;;;;;;;;5016452;28;20185;-95
2023/11/12 05:58:58;;;;;;;3.05;2.85;;;;;;;;;;5014939;28;20193;-95
2023/11/12 06:01:24;;;;;;;2.65;2.45;;;5.30;99.90;;;;;;5016025;28;20197;-93
2023/11/12 06:03:52;;;;;;;2.77;2.57;;;;;;;;;;5017655;28;20228;-95
2023/11/12 06:06:18;;;;;;;2.75;2.30;;;5.20;99.90;;;;;;5030309;28;20903;-92
2023/11/12 06:08:43;;;;;;;3.57;2.80;;;4.50;99.90;;;;;;5014037;28;20265;-91
2023/11/12 06:11:09;;;;;;;2.43;2.20;;;4.90;99.90;;;;;;5015726;28;20209;-93
2023/11/12 06:13:35;;;;;;;3.60;2.70;;;5.60;99.90;;;;;;5017785;28;20331;-91
2023/11/12 06:16:00;;;;;;;2.70;2.50;;;5.40;99.90;;;;;;5015993;28;20197;-92
2023/11/12 06:18:26;;;;;;;3.20;2.33;;;5.30;99.90;;;;;;5014007;28;20189;-93
2023/11/12 06:20:52;;;;;;;2.90;2.60;;;5.30;99.90;;;;;;5015316;28;20193;-90
2023/11/12 06:23:17;;;;;;;2.27;2.07;;;5.50;99.90;;;;;;5017721;28;20743;-94
2023/11/12 06:25:43;;;;;;;3.37;2.50;;;5.30;99.90;;;;;;5015306;28;20228;-93
2023/11/12 06:28:09;;;;;;;2.23;2.03;;;5.40;99.90;;;;;;5014676;28;20193;-92
2023/11/12 06:30:34;;;;;;;6.13;2.37;;;5.70;99.90;;;;;;5015561;28;20194;-91
2023/11/12 06:33:00;;;;;;;2.53;2.33;;;5.30;99.90;;;;;;5009944;28;20213;-88
2023/11/12 06:35:26;;;;;;;9.10;3.40;;;5.20;99.90;;;;;;5011998;28;20814;-89
2023/11/12 06:37:51;;;;;;;2.50;2.30;;;5.70;99.90;;;;;;5012457;28;20203;-89
2023/11/12 06:40:17;;;;;;;2.50;2.30;;;5.70;99.90;;;;;;5011855;28;20192;-89
2023/11/12 06:42:43;;;;;;;4.37;2.40;;;5.70;99.90;;;;;;5009644;28;20181;-89
2023/11/12 06:45:08;;;;;;;2.80;2.20;;;5.90;99.90;;;;;;5014236;28;20178;-92
2023/11/12 06:47:35;;;;;;;3.97;2.43;;;5.40;99.90;;;;;;5009994;28;20208;-91
2023/11/12 06:50:01;;;;;;;4.40;2.38;;;5.70;99.90;;;;;;5014478;28;20578;-92
2023/11/12 06:52:27;;;;;;;2.55;2.35;;;5.40;99.90;;;;;;5014057;28;20197;-92
2023/11/12 06:54:52;;;;;;;2.73;2.00;;;6.00;99.90;;;;;;5014796;28;20211;-92
2023/11/12 06:57:18;;;;;;;3.60;2.50;;;5.50;99.90;;;;;;5013825;28;20657;-92
2023/11/12 06:59:43;;;;;;;2.87;2.47;;;5.50;99.90;;;;;;5015582;28;20193;-92
2023/11/12 07:02:09;;;;;;;4.33;3.87;;;5.50;99.90;;;;;;5013685;28;20285;-92
2023/11/12 07:04:34;;;;;;;2.30;2.10;;;5.60;99.90;;;;;;5014208;28;20771;-92
2023/11/12 07:07:00;;;;;;;3.30;2.80;;;6.10;99.90;;;;;;5013540;28;20210;-92
2023/11/12 07:09:26;;;;;;;3.63;2.43;;;6.10;99.90;;;;;;5016435;28;20181;-92
2023/11/12 07:11:51;;;;;;;2.30;2.10;;;5.90;99.90;;;;;;5014467;28;20185;-92
2023/11/12 07:14:17;;;;;;;4.63;2.50;;;5.70;99.90;;;;;;5014290;28;20673;-92
2023/11/12 07:16:43;;;;;;;2.57;2.37;;;5.90;99.90;;;;;;5015161;28;20178;-92
2023/11/12 07:19:09;;;;;;;2.60;2.40;;;5.70;99.90;;;;;;5015721;28;20201;-92
2023/11/12 07:21:35;;;;;;;3.93;2.60;;;5.50;99.90;;;;;;5017517;28;20253;-88
2023/11/12 07:24:01;;;;;;;2.90;2.70;;;5.80;99.90;;;;;;5020746;28;20216;-87
2023/11/12 07:26:27;;;;;;;2.40;2.20;;;6.10;99.90;;;;;;5011345;28;20209;-88
2023/11/12 07:28:53;;;;;;;2.45;2.28;;;5.90;99.90;;;;;;5012086;28;20193;-87
2023/11/12 07:31:22;;;;;;;2.40;2.20;;;5.60;99.90;;;;;;5014708;28;20261;-87
2023/11/12 07:33:47;;;;;;;2.92;2.70;;;5.60;99.90;;;;;;5015792;28;20229;-88
2023/11/12 07:36:13;;;;;;;2.40;2.20;;;5.90;99.90;;;;;;5016037;28;20291;-86
2023/11/12 07:38:40;;;;;;;3.03;2.37;;;5.90;99.90;;;;;;5015181;28;20449;-87
2023/11/12 07:41:07;;;;;;;2.83;2.42;;;6.10;99.90;;;;;;5016525;28;20769;-86
2023/11/12 07:43:34;;;;;;;2.95;2.60;;;6.00;99.90;;;;;;5016749;28;20208;-86
2023/11/12 07:45:59;;;;;;;2.92;2.58;;;5.80;99.90;;;;;;5015688;28;20304;-87
2023/11/12 07:48:25;;;;;;;2.37;2.17;;;6.20;99.90;;;;;;5014982;28;20277;-87
2023/11/12 07:50:51;;;;;;;2.43;2.20;;;6.40;99.90;;;;;;5016659;28;20217;-86
2023/11/12 07:53:16;;;;;;;5.80;3.20;;;6.10;99.90;;;;;;5010714;28;20575;-87
2023/11/12 07:55:42;;;;;;;2.43;2.23;;;5.90;99.90;;;;;;5011454;28;20216;-87
2023/11/12 07:58:07;;;;;;;3.93;3.00;;;6.20;99.90;;;;;;5012547;28;20186;-87
2023/11/12 08:00:33;;;;;;;2.70;2.50;;;5.90;99.90;;;;;;5012056;28;20730;-87
2023/11/12 08:02:59;;;;;;;2.70;2.50;;;6.20;99.90;;;;;;5014561;28;20206;-87
2023/11/12 08:05:24;;;;;;;3.33;2.90;;;6.30;99.90;;;;;;5013444;28;20191;-88
2023/11/12 08:07:50;;;;;;;2.47;2.27;;;6.30;99.90;;;;;;5011112;28;20208;-88
2023/11/12 08:10:19;;;;;;;3.35;3.05;;;6.30;99.90;;;;;;5014130;28;20189;-89
2023/11/12 08:12:45;;;;;;;2.88;2.58;;;6.30;99.90;;;;;;5009647;28;20269;-88
2023/11/12 08:15:12;;;;;;;3.10;2.70;;;6.40;99.90;;;;;;5014864;28;20272;-88
2023/11/12 08:17:41;;;;;;;3.30;3.00;;;6.40;99.90;;;;;;5013132;28;20193;-88
2023/11/12 08:20:09;;;;;;;3.25;3.00;;;6.60;99.90;;;;;;5011892;28;20186;-88
2023/11/12 08:22:34;;;;;;;2.83;2.63;;;6.40;99.90;;;;;;5012923;28;20182;-88
2023/11/12 08:25:00;;;;;;;3.73;3.17;;;6.50;99.90;;;;;;5012432;28;20232;-88
2023/11/12 08:27:25;;;;;;;7.33;3.43;;;6.50;99.90;;;;;;5013363;28;20261;-87
2023/11/12 08:29:51;;;;;;;3.93;3.23;;;6.90;99.90;;;;;;5011702;28;20223;-88
2023/11/12 08:32:17;;;;;;;2.57;2.37;;;6.90;99.90;;;;;;5015281;28;20856;-87
2023/11/12 08:34:43;;;;;;;3.60;3.30;;;6.70;99.90;;;;;;5014850;28;20460;-88
2023/11/12 08:37:09;;;;;;;3.10;2.80;;;6.90;99.90;;;;;;5011722;28;20470;-88
2023/11/12 08:39:34;;;;;;;3.00;2.70;;;7.10;99.90;;;;;;5012123;28;20193;-87
2023/11/12 08:42:00;;;;;;;3.40;3.00;;;7.40;99.90;;;;;;5013876;28;20444;-88
2023/11/12 08:44:25;;;;;;;3.13;2.83;;;7.60;99.90;;;;;;5013156;28;20205;-88
2023/11/12 08:46:51;;;;;;;3.17;2.87;;;7.60;99.90;;;;;;5012494;28;20731;-89
2023/11/12 08:49:17;;;;;;;3.47;3.17;;;7.90;99.90;;;;;;5007531;28;20270;-86
2023/11/12 08:51:42;;;;;;;3.33;3.00;;;7.40;99.90;;;;;;5015016;28;20412;-85
2023/11/12 08:54:09;;;;;;;3.10;2.77;;;7.80;99.90;;;;;;5015803;28;20431;-86
2023/11/12 08:56:35;;;;;;;3.38;3.08;;;7.60;99.90;;;;;;5012949;28;20559;-85
2023/11/12 08:59:01;;;;;;;3.80;3.45;;;8.00;99.90;;;;;;5015920;28;20253;-85
2023/11/12 09:01:26;;;;;;;3.57;3.00;;;8.00;99.90;;;;;;5014355;28;20659;-85
2023/11/12 09:03:52;;;;;;;3.60;3.17;;;7.90;99.90;;;;;;5012930;28;20748;-83
2023/11/12 09:06:18;;;;;;;2.90;2.60;;;8.20;99.90;;;;;;5015361;28;20609;-83
2023/11/12 09:08:45;;;;;;;3.10;2.90;;;7.40;99.90;;;;;;5013707;28;20265;-84
2023/11/12 09:11:13;;;;;;;2.60;2.40;;;7.60;99.90;;;;;;5017447;28;20275;-84
2023/11/12 09:13:39;;;;;;;2.67;2.47;;;8.70;99.90;;;;;;5015890;28;20252;-84
2023/11/12 09:16:10;;;;;;;2.83;2.63;;;8.20;99.90;;;;;;5016028;28;20191;-84
2023/11/12 09:18:36;;;;;;;2.33;2.13;;;8.30;99.90;;;;;;5015575;28;20454;-84
2023/11/12 09:21:02;;;;;;;3.30;2.40;;;8.00;99.90;;;;;;5010939;28;20191;-83
2023/11/12 09:23:28;;;;;;;3.93;2.57;;;8.30;99.90;;;;;;5014371;28;20202;-84
2023/11/12 09:25:53;;;;;;;3.20;2.63;;;8.10;99.90;;;;;;5021564;28;20438;-85
2023/11/12 09:28:19;;;;;;;4.80;2.73;;;8.30;99.90;;;;;;5016312;28;20186;-85
2023/11/12 09:30:45;;;;;;;3.60;2.33;;;8.70;99.90;;;;;;5014859;28;20209;-84
2023/11/12 09:33:12;;;;;;;2.60;2.23;;;8.10;99.90;;;;;;5019398;28;20202;-87
2023/11/12 09:35:41;;;;;;;4.65;3.05;;;8.60;99.90;;;;;;5012764;28;20186;-90
2023/11/12 09:38:07;;;;;;;3.30;2.35;;;8.20;99.90;;;;;;4994397;28;20236;-90
2023/11/12 09:40:33;;;;;;;2.30;2.10;;;8.40;99.90;;;;;;5014519;28;20178;-91
2023/11/12 09:42:59;;;;;;;2.60;2.40;;;8.30;99.90;;;;;;5011672;28;20204;-91
2023/11/12 09:45:28;;;;;;;2.50;2.30;;;8.00;99.90;;;;;;5014651;28;20183;-91
2023/11/12 09:47:53;;;;;;;2.83;2.53;;;8.30;99.90;;;;;;5014048;28;20640;-90
2023/11/12 09:50:24;;;;;;;2.70;2.50;;;8.40;99.90;;;;;;5011280;28;20182;-92
2023/11/12 09:52:51;;;;;;;2.85;2.58;;;8.60;99.90;;;;;;5014401;28;20179;-91
2023/11/12 09:55:18;;;;;;;2.75;2.55;;;8.90;99.90;;;;;;5015258;28;20186;-92
2023/11/12 09:57:44;;;;;;;3.60;2.95;;;8.60;99.90;;;;;;5016181;28;20175;-92
2023/11/12 10:00:12;;;;;;;2.60;2.40;;;8.80;99.90;;;;;;5016383;28;21720;-91
2023/11/12 10:02:39;;;;;;;5.22;2.60;;;8.70;99.90;;;;;;5016570;28;20229;-91
2023/11/12 10:05:10;;;;;;;18.25;9.55;;;8.70;99.90;;;;;;5017840;28;20186;-88
2023/11/12 10:07:44;;;;;;;4.20;2.72;;;9.10;99.90;;;;;;5016852;28;20212;-89
2023/11/12 10:10:36;;;;;;;3.70;2.95;;;9.40;99.90;;;;;;5011847;28;20192;-88
2023/11/12 10:13:05;;;;;;;2.60;2.40;;;9.40;99.90;;;;;;5008450;28;20585;-87
2023/11/12 10:15:36;;;;;;;3.42;2.97;;;9.60;99.90;;;;;;5014331;28;20182;-86
2023/11/12 10:18:03;;;;;;;2.72;2.22;;;8.90;99.90;;;;;;5021634;28;20185;-85
2023/11/12 10:20:31;;;;;;;3.08;2.60;;;9.10;99.90;;;;;;5019033;28;20187;-84
2023/11/12 10:22:57;;;;;;;2.85;2.65;;;9.30;99.90;;;;;;5016113;28;20213;-85
2023/11/12 10:25:44;;;;;;;2.67;2.47;;;9.30;99.90;;;;;;5015610;28;20182;-86
2023/11/12 10:28:11;;;;;;;2.75;2.50;;;8.80;99.90;;;;;;5006461;28;20701;-86
2023/11/12 10:30:38;;;;;;;3.58;2.63;;;8.70;99.90;;;;;;5013473;28;20278;-85
2023/11/12 10:36:49;;;;;;;4.32;2.85;;;7.80;99.90;;;;;;5075308;22;20280;-86
2023/11/12 10:40:10;;;;;;;5.05;2.67;;;9.60;99.90;;;;;;4981689;28;20217;-87
2023/11/12 11:03:36;;;;;;;;;;;;;;;;;;;;;
2023/11/12 11:06:12;;;;;;;3.47;2.97;;;9.60;99.90;;;;;;5008702;28;20675;-85
2023/11/12 11:08:58;;;;;;;2.55;2.35;;;9.70;99.90;;;;;;5010455;28;20188;-85
2023/11/12 11:12:04;;;;;;;2.40;2.20;;;10.60;99.90;;;;;;5010994;28;20191;-87
2023/11/12 11:14:35;;;;;;;2.50;2.30;;;11.50;99.90;;;;;;5005930;28;20223;-85
2023/11/12 11:17:01;;;;;;;2.70;2.10;;;;;;;;;;5005603;28;20191;-86
2023/11/12 11:19:50;;;;;;;3.53;2.20;;;9.60;99.90;;;;;;5008150;28;20192;-86
2023/11/12 11:22:45;;;;;;;;;;;;;;;;;;;;;
2023/11/12 11:25:34;;;;;;;2.35;2.05;;;10.10;99.90;;;;;;5011002;28;20187;-85
2023/11/12 11:28:19;;;;;;;3.90;2.25;;;9.60;99.90;;;;;;5007951;28;20191;-86
2023/11/12 11:31:58;;;;;;;2.35;2.15;;;9.90;99.90;;;;;;4998413;28;20190;-85
2023/11/12 11:34:42;;;;;;;3.08;2.60;;;10.30;99.90;;;;;;5009868;28;20299;-85
2023/11/12 11:37:41;;;;;;;;;;;;;;;;;;;;;
2023/11/12 11:43:36;;;;;;;;;;;;;;;;;;;;;
2023/11/12 11:46:43;;;;;;;;;;;;;;;;;;;;;
2023/11/12 11:52:24;;;;;;;4.15;2.72;;;10.10;99.60;;;;;;5011457;28;20657;-86
2023/11/12 11:55:07;;;;;;;;;;;;;;;;;;;;;
2023/11/12 11:57:46;;;;;;;2.35;2.25;;;8.70;99.90;;;;;;5013680;28;20188;-85
2023/11/12 12:00:54;;;;;;;2.20;2.00;;;9.90;99.90;;;;;;5010186;28;20700;-85
2023/11/12 12:03:23;;;;;;;4.00;2.65;;;10.70;99.90;;;;;;5007583;28;20225;-85
2023/11/12 12:05:59;;;;;;;;;;;;;;;;;;;;;
2023/11/12 12:08:33;;;;;;;3.75;2.65;;;10.10;99.90;;;;;;5008258;28;20377;-85
2023/11/12 12:11:22;;;;;;;4.47;2.58;;;11.10;99.90;;;;;;5013262;28;20192;-84
2023/11/12 12:14:09;;;;;;;;;;;;;;;;;;;;;
2023/11/12 12:16:47;;;;;;;2.88;2.67;;;10.10;99.90;;;;;;5010180;28;20198;-85
2023/11/12 12:19:21;;;;;;;3.80;2.20;;;10.90;99.90;;;;;;5009180;28;20203;-85
2023/11/12 12:21:51;;;;;;;2.83;2.30;;;10.30;99.60;;;;;;5007907;28;20181;-85
2023/11/12 12:24:21;;;;;;;3.50;2.40;;;12.50;99.90;;;;;;5006262;28;20232;-86
2023/11/12 12:26:49;;;;;;;3.97;2.47;;;10.50;99.90;;;;;;5007282;28;20295;-87
2023/11/12 12:29:20;;;;;;;2.60;2.40;;;10.20;99.00;;;;;;5004421;28;20196;-86
2023/11/12 12:31:48;;;;;;;3.15;2.90;;;10.50;99.50;;;;;;5004142;28;20679;-85
2023/11/12 12:34:19;;;;;;;3.20;2.45;;;10.60;99.90;;;;;;5005603;28;20272;-86
2023/11/12 12:37:10;;;;;;;2.80;2.50;;;10.40;99.40;;;;;;5008546;28;20275;-85
2023/11/12 12:40:15;;;;;;;2.05;1.95;;;10.30;99.40;;;;;;5010280;28;20193;-86
2023/11/12 12:42:43;;;;;;;2.35;2.15;;;10.50;98.70;;;;;;5009964;28;20282;-86
2023/11/12 12:45:15;;;;;;;3.08;2.60;;;11.80;99.90;;;;;;5008768;28;20287;-86
2023/11/12 12:47:41;;;;;;;2.50;2.30;;;11.30;99.90;;;;;;5009643;28;20216;-86
2023/11/12 12:50:33;;;;;;;3.85;2.35;;;11.90;99.80;;;;;;5009650;28;20187;-86
2023/11/12 12:53:17;;;;;;;2.25;2.05;;;10.90;99.80;;;;;;5007552;28;20306;-86
2023/11/12 12:55:44;;;;;;;2.63;2.42;;;12.60;99.60;;;;;;5010922;28;20194;-86
2023/11/12 12:58:11;;;;;;;2.25;1.90;;;11.70;99.80;;;;;;5006452;28;21202;-87
2023/11/12 13:00:39;;;;;;;3.13;2.40;;;11.80;99.40;;;;;;5010666;28;20177;-85
2023/11/12 13:03:26;;;;;;;2.22;2.03;;;12.60;99.50;;;;;;5008454;28;20232;-85
2023/11/12 13:05:51;;;;;;;2.65;1.90;;;11.50;99.40;;;;;;5016740;28;20207;-86
2023/11/12 13:08:18;;;;;;;3.40;2.20;;;10.30;99.70;;;;;;5009055;28;20670;-86
2023/11/12 13:10:46;;;;;;;2.75;2.53;;;12.10;99.90;;;;;;5011050;28;20192;-86
2023/11/12 13:13:16;;;;;;;2.47;1.80;;;11.00;99.00;;;;;;5008660;28;20208;-87
2023/11/12 13:15:42;;;;;;;3.35;2.53;;;12.20;99.80;;;;;;5024757;28;20185;-85
2023/11/12 13:18:10;;;;;;;2.35;2.15;;;10.10;98.20;;;;;;5018019;28;20185;-85
2023/11/12 13:20:35;;;;;;;3.67;2.00;;;11.50;99.90;;;;;;5025132;28;20697;-85
2023/11/12 13:23:01;;;;;;;2.63;2.43;;;;;;;;;;5012433;28;20240;-86
2023/11/12 13:25:27;;;;;;;2.97;2.70;;;10.60;97.70;;;;;;5006890;28;20239;-85
2023/11/12 13:27:56;;;;;;;2.50;2.30;;;11.00;98.90;;;;;;5014492;28;20221;-87
2023/11/12 13:30:22;;;;;;;3.08;2.35;;;;;;;;;;5011930;28;20224;-86
2023/11/12 13:32:59;;;;;;;3.42;2.08;;;10.20;99.20;;;;;;5012101;28;20254;-87
2023/11/12 13:35:27;;;;;;;2.53;2.25;;;11.40;99.90;;;;;;5012584;28;20191;-86
2023/11/12 13:38:09;;;;;;;2.13;1.92;;;11.30;99.90;;;;;;5019268;28;20195;-87
2023/11/12 13:40:45;;;;;;;1.98;1.80;;;10.60;99.90;;;;;;5030014;28;20201;-86
2023/11/12 13:43:37;;;;;;;2.58;1.83;;;11.00;99.90;;;;;;5012251;28;20242;-88
2023/11/12 13:46:06;;;;;;;2.63;1.83;;;11.00;99.70;;;;;;5028521;28;20231;-88
2023/11/12 13:48:33;;;;;;;3.08;1.60;;;11.30;99.90;;;;;;5034379;28;20176;-88